Jalma Topic — A8IQ6 — position and weather

sailwx.info

Track history (hours):
 
Tides and Currents Weather Stations Pressure Air Temp Water Temp Dewpoint Dewpoint Depression Visibility Wind Speed Wind Dir Waves Ship Positions

Jalma Topic

Last reported at 2017-Aug-06 07:50 UTC. Time now 2017-Aug-20 13:26 UTC.
Position N 25°57' W 015°27'.
Warning: this ship's position is 14 days out of date.

Length 183 m; draft 8.1 m.

Type: Cargo ship. MMSI: 636012871.

Date/timePositionNaut miles runAvg speedWind from/ knotsBaromVisibWave heightAir tempDewpointWater temp
2017-Aug-06 07:50N 25°57' W 015°27'2714.1
2017-Aug-06 05:55N 26°18' W 015°08'1913.8
2017-Aug-06 04:31N 26°33' W 014°54'013.5
2017-Aug-06 04:30N 26°33' W 014°54'913.8
2017-Aug-06 03:52N 26°39' W 014°48'513.8
2017-Aug-06 03:30N 26°43' W 014°44'713.9
2017-Aug-06 02:58N 26°49' W 014°38'613.9
2017-Aug-06 02:30N 26°54' W 014°34'713.8
2017-Aug-06 02:00N 26°59' W 014°29'713.9
2017-Aug-06 01:30N 27°04' W 014°24'1214.1
2017-Aug-06 00:41N 27°13' W 014°16'314.2
2017-Aug-06 00:30N 27°15' W 014°14'714.0
2017-Aug-06 00:00N 27°21' W 014°09'713.8
2017-Aug-05 23:30N 27°26' W 014°04'714.1
2017-Aug-05 23:00N 27°31' W 013°59'814.3
2017-Aug-05 22:28N 27°38' W 013°54'714.3
2017-Aug-05 22:00N 27°43' W 013°50'713.9
2017-Aug-05 21:29N 27°50' W 013°46'714.0
2017-Aug-05 21:00N 27°55' W 013°42'714.1
2017-Aug-05 20:31N 28°01' W 013°37'714.1
2017-Aug-05 20:01N 28°07' W 013°33'714.3
2017-Aug-05 19:31N 28°13' W 013°29'714.4
2017-Aug-05 19:01N 28°19' W 013°24'714.3
2017-Aug-05 18:31N 28°25' W 013°20'814.6
2017-Aug-05 18:00N 28°32' W 013°15'814.7
2017-Aug-05 17:29N 28°38' W 013°11'714.5
2017-Aug-05 17:01N 28°43' W 013°06'714.2
2017-Aug-05 16:30N 28°49' W 013°02'714.1
2017-Aug-05 16:01N 28°55' W 012°58'714.2
2017-Aug-05 15:31N 29°01' W 012°53'714.2
2017-Aug-05 15:00N 29°08' W 012°49'814.2
2017-Aug-05 14:28N 29°14' W 012°44'714.2
2017-Aug-05 14:00N 29°19' W 012°40'914.0
2017-Aug-05 13:21N 29°27' W 012°34'1314.0
2017-Aug-05 12:27N 29°38' W 012°27'2314.2
2017-Aug-05 10:50N 29°57' W 012°12'814.1
2017-Aug-05 10:15N 30°04' W 012°07'414.1
2017-Aug-05 09:59N 30°07' W 012°05'714.1
2017-Aug-05 09:30N 30°13' W 012°00'714.2
2017-Aug-05 09:00N 30°19' W 011°56'714.0
2017-Aug-05 08:29N 30°25' W 011°51'2013.8
2017-Aug-05 07:02N 30°42' W 011°39'014.2
2017-Aug-05 07:00N 30°42' W 011°39'814.1
2017-Aug-05 06:27N 30°49' W 011°34'1314.0
2017-Aug-05 05:29N 30°60' W 011°25'3713.6
2017-Aug-05 02:46N 31°31' W 011°02'913.9
2017-Aug-05 02:05N 31°39' W 010°56'114.0
2017-Aug-05 02:00N 31°40' W 010°55'714.1
2017-Aug-05 01:30N 31°46' W 010°51'713.8
2017-Aug-05 00:59N 31°52' W 010°46'1313.7
2017-Aug-05 00:01N 32°02' W 010°36'713.9
2017-Aug-04 23:30N 32°08' W 010°30'813.8
2017-Aug-04 22:54N 32°14' W 010°24'7714.3
2017-Aug-04 17:32N 33°08' W 009°19'23213.9
2017-Aug-04 00:54N 35°51' W 005°60'712.7
2017-Aug-04 00:22N 35°56' W 005°54'812.1
2017-Aug-03 23:43N 35°57' W 005°44'312.4
2017-Aug-03 23:28N 35°57' W 005°40'613.0
2017-Aug-03 23:00N 35°58' W 005°33'612.1
2017-Aug-03 22:30N 36°00' W 005°26'611.0
2017-Aug-03 22:01N 36°02' W 005°20'610.6
2017-Aug-03 21:28N 36°03' W 005°13'20412.8
2017-Aug-03 05:31N 37°08' W 001°12'014.0
2017-Aug-03 05:30N 37°08' W 001°12'814.2
2017-Aug-03 04:54N 37°13' W 001°04'614.5
2017-Aug-03 04:30N 37°17' W 000°58'714.4
2017-Aug-03 04:00N 37°22' W 000°51'714.4
2017-Aug-03 03:30N 37°27' W 000°45'714.5
2017-Aug-03 03:00N 37°31' W 000°38'714.2
2017-Aug-03 02:30N 37°36' W 000°32'714.0
2017-Aug-03 02:00N 37°42' W 000°27'1714.1
2017-Aug-03 00:47N 37°56' W 000°14'514.3
2017-Aug-03 00:28N 38°00' W 000°11'7414.1
2017-Aug-02 19:15N 39°03' E 000°37'313.5
2017-Aug-02 19:00N 39°06' E 000°39'913.6
2017-Aug-02 18:20N 39°15' E 000°45'413.7
2017-Aug-02 18:01N 39°18' E 000°47'1713.9
2017-Aug-02 16:45N 39°34' E 000°58'413.6
2017-Aug-02 16:29N 39°37' E 001°00'713.9
2017-Aug-02 16:00N 39°43' E 001°05'714.0
2017-Aug-02 15:30N 39°49' E 001°09'714.2
2017-Aug-02 15:00N 39°55' E 001°13'2114.1
2017-Aug-02 13:30N 40°14' E 001°26'713.7
2017-Aug-02 13:00N 40°20' E 001°30'713.7
2017-Aug-02 12:30N 40°26' E 001°35'713.9
2017-Aug-02 12:00N 40°32' E 001°39'714.1
2017-Aug-02 11:30N 40°38' E 001°43'714.3
2017-Aug-02 11:00N 40°45' E 001°48'714.4
2017-Aug-02 10:30N 40°51' E 001°52'714.4
2017-Aug-02 10:00N 40°57' E 001°56'714.3
2017-Aug-02 09:30N 41°04' E 002°01'714.3
2017-Aug-02 09:00N 41°10' E 002°06'713.6
2017-Aug-02 08:30N 41°16' E 002°10'5 9.0
2017-Aug-02 08:00N 41°20' E 002°10'1 2.5
2017-Aug-02 07:29N 41°21' E 002°10'0 0.0
2017-Aug-02 06:23N 41°22' E 002°11'0 0.0
2017-Aug-02 05:53N 41°22' E 002°10'0 0.0
2017-Aug-02 05:11N 41°22' E 002°11'0 0.0
2017-Aug-02 04:59N 41°22' E 002°10'0 0.0
2017-Aug-02 04:29N 41°22' E 002°11'0 0.0
2017-Aug-02 03:11N 41°22' E 002°11'0 0.0
2017-Aug-02 02:47N 41°22' E 002°10'0 0.0
2017-Aug-02 02:17N 41°22' E 002°10'0 0.0
2017-Aug-02 01:53N 41°22' E 002°11'  
2017-Jul-29 17:57N 41°19' E 002°11'0 0.0
2017-Jul-29 17:30N 41°19' E 002°11'0 0.0
2017-Jul-29 16:54N 41°19' E 002°11'0 0.0
2017-Jul-29 16:30N 41°19' E 002°11'0 0.0
2017-Jul-29 16:00N 41°19' E 002°11'0 0.0
2017-Jul-29 15:30N 41°19' E 002°11'0 0.0
2017-Jul-29 15:00N 41°19' E 002°11'0 0.0
2017-Jul-29 13:48N 41°19' E 002°11'0 0.0
2017-Jul-29 11:54N 41°19' E 002°11'0 0.0
2017-Jul-29 09:48N 41°19' E 002°11'0 0.0
2017-Jul-29 09:18N 41°19' E 002°11'0 0.0
2017-Jul-29 08:42N 41°19' E 002°11'0 0.0
2017-Jul-29 06:30N 41°19' E 002°11'0 0.0
2017-Jul-29 05:48N 41°19' E 002°11'0 0.0
2017-Jul-29 05:21N 41°19' E 002°11'0 0.0
2017-Jul-29 05:00N 41°19' E 002°11'0 0.0
2017-Jul-28 21:42N 41°19' E 002°11'0 0.0
2017-Jul-28 21:24N 41°19' E 002°11'0 0.0
2017-Jul-28 20:00N 41°19' E 002°11'49 2.0
2017-Jul-27 20:00N 40°33' E 001°50'612.1
2017-Jul-27 19:28N 40°27' E 001°47'612.5
2017-Jul-27 19:00N 40°21' E 001°44'612.6
2017-Jul-27 18:30N 40°16' E 001°41'612.6
2017-Jul-27 18:00N 40°10' E 001°38'612.6
2017-Jul-27 17:30N 40°04' E 001°35'612.7
2017-Jul-27 17:00N 39°58' E 001°32'612.7
2017-Jul-27 16:30N 39°52' E 001°29'7912.6
2017-Jul-27 10:11N 38°38' E 000°51'212.6
2017-Jul-27 10:00N 38°36' E 000°50'612.5
2017-Jul-27 09:30N 38°30' E 000°47'  
Track history (hours):
 
Tides and Currents Weather Stations Pressure Air Temp Water Temp Dewpoint Dewpoint Depression Visibility Wind Speed Wind Dir Waves Ship Positions

Jalma Topic

Last reported at 2017-Aug-06 07:50 UTC. Time now 2017-Aug-20 13:26 UTC.
Position N 25°57' W 015°27'.
Warning: this ship's position is 14 days out of date.

Length 183 m; draft 8.1 m.

Type: Cargo ship. MMSI: 636012871.

Date/timePositionNaut miles runAvg speedWind from/ knotsBaromVisibWave heightAir tempDewpointWater temp
2017-Aug-06 07:50N 25°57' W 015°27'2714.1
2017-Aug-06 05:55N 26°18' W 015°08'1913.8
2017-Aug-06 04:31N 26°33' W 014°54'013.5
2017-Aug-06 04:30N 26°33' W 014°54'913.8
2017-Aug-06 03:52N 26°39' W 014°48'513.8
2017-Aug-06 03:30N 26°43' W 014°44'713.9
2017-Aug-06 02:58N 26°49' W 014°38'613.9
2017-Aug-06 02:30N 26°54' W 014°34'713.8
2017-Aug-06 02:00N 26°59' W 014°29'713.9
2017-Aug-06 01:30N 27°04' W 014°24'1214.1
2017-Aug-06 00:41N 27°13' W 014°16'314.2
2017-Aug-06 00:30N 27°15' W 014°14'714.0
2017-Aug-06 00:00N 27°21' W 014°09'713.8
2017-Aug-05 23:30N 27°26' W 014°04'714.1
2017-Aug-05 23:00N 27°31' W 013°59'814.3
2017-Aug-05 22:28N 27°38' W 013°54'714.3
2017-Aug-05 22:00N 27°43' W 013°50'713.9
2017-Aug-05 21:29N 27°50' W 013°46'714.0
2017-Aug-05 21:00N 27°55' W 013°42'714.1
2017-Aug-05 20:31N 28°01' W 013°37'714.1
2017-Aug-05 20:01N 28°07' W 013°33'714.3
2017-Aug-05 19:31N 28°13' W 013°29'714.4
2017-Aug-05 19:01N 28°19' W 013°24'714.3
2017-Aug-05 18:31N 28°25' W 013°20'814.6
2017-Aug-05 18:00N 28°32' W 013°15'814.7
2017-Aug-05 17:29N 28°38' W 013°11'714.5
2017-Aug-05 17:01N 28°43' W 013°06'714.2
2017-Aug-05 16:30N 28°49' W 013°02'714.1
2017-Aug-05 16:01N 28°55' W 012°58'714.2
2017-Aug-05 15:31N 29°01' W 012°53'714.2
2017-Aug-05 15:00N 29°08' W 012°49'814.2
2017-Aug-05 14:28N 29°14' W 012°44'714.2
2017-Aug-05 14:00N 29°19' W 012°40'914.0
2017-Aug-05 13:21N 29°27' W 012°34'1314.0
2017-Aug-05 12:27N 29°38' W 012°27'2314.2
2017-Aug-05 10:50N 29°57' W 012°12'814.1
2017-Aug-05 10:15N 30°04' W 012°07'414.1
2017-Aug-05 09:59N 30°07' W 012°05'714.1
2017-Aug-05 09:30N 30°13' W 012°00'714.2
2017-Aug-05 09:00N 30°19' W 011°56'714.0
2017-Aug-05 08:29N 30°25' W 011°51'2013.8
2017-Aug-05 07:02N 30°42' W 011°39'014.2
2017-Aug-05 07:00N 30°42' W 011°39'814.1
2017-Aug-05 06:27N 30°49' W 011°34'1314.0
2017-Aug-05 05:29N 30°60' W 011°25'3713.6
2017-Aug-05 02:46N 31°31' W 011°02'913.9
2017-Aug-05 02:05N 31°39' W 010°56'114.0
2017-Aug-05 02:00N 31°40' W 010°55'714.1
2017-Aug-05 01:30N 31°46' W 010°51'713.8
2017-Aug-05 00:59N 31°52' W 010°46'1313.7
2017-Aug-05 00:01N 32°02' W 010°36'713.9
2017-Aug-04 23:30N 32°08' W 010°30'813.8
2017-Aug-04 22:54N 32°14' W 010°24'7714.3
2017-Aug-04 17:32N 33°08' W 009°19'23213.9
2017-Aug-04 00:54N 35°51' W 005°60'712.7
2017-Aug-04 00:22N 35°56' W 005°54'812.1
2017-Aug-03 23:43N 35°57' W 005°44'312.4
2017-Aug-03 23:28N 35°57' W 005°40'613.0
2017-Aug-03 23:00N 35°58' W 005°33'612.1
2017-Aug-03 22:30N 36°00' W 005°26'611.0
2017-Aug-03 22:01N 36°02' W 005°20'610.6
2017-Aug-03 21:28N 36°03' W 005°13'20412.8
2017-Aug-03 05:31N 37°08' W 001°12'014.0
2017-Aug-03 05:30N 37°08' W 001°12'814.2
2017-Aug-03 04:54N 37°13' W 001°04'614.5
2017-Aug-03 04:30N 37°17' W 000°58'714.4
2017-Aug-03 04:00N 37°22' W 000°51'714.4
2017-Aug-03 03:30N 37°27' W 000°45'714.5
2017-Aug-03 03:00N 37°31' W 000°38'714.2
2017-Aug-03 02:30N 37°36' W 000°32'714.0
2017-Aug-03 02:00N 37°42' W 000°27'1714.1
2017-Aug-03 00:47N 37°56' W 000°14'514.3
2017-Aug-03 00:28N 38°00' W 000°11'7414.1
2017-Aug-02 19:15N 39°03' E 000°37'313.5
2017-Aug-02 19:00N 39°06' E 000°39'913.6
2017-Aug-02 18:20N 39°15' E 000°45'413.7
2017-Aug-02 18:01N 39°18' E 000°47'1713.9
2017-Aug-02 16:45N 39°34' E 000°58'413.6
2017-Aug-02 16:29N 39°37' E 001°00'713.9
2017-Aug-02 16:00N 39°43' E 001°05'714.0
2017-Aug-02 15:30N 39°49' E 001°09'714.2
2017-Aug-02 15:00N 39°55' E 001°13'2114.1
2017-Aug-02 13:30N 40°14' E 001°26'713.7
2017-Aug-02 13:00N 40°20' E 001°30'713.7
2017-Aug-02 12:30N 40°26' E 001°35'713.9
2017-Aug-02 12:00N 40°32' E 001°39'714.1
2017-Aug-02 11:30N 40°38' E 001°43'714.3
2017-Aug-02 11:00N 40°45' E 001°48'714.4
2017-Aug-02 10:30N 40°51' E 001°52'714.4
2017-Aug-02 10:00N 40°57' E 001°56'714.3
2017-Aug-02 09:30N 41°04' E 002°01'714.3
2017-Aug-02 09:00N 41°10' E 002°06'713.6
2017-Aug-02 08:30N 41°16' E 002°10'5 9.0
2017-Aug-02 08:00N 41°20' E 002°10'1 2.5
2017-Aug-02 07:29N 41°21' E 002°10'0 0.0
2017-Aug-02 06:23N 41°22' E 002°11'0 0.0
2017-Aug-02 05:53N 41°22' E 002°10'0 0.0
2017-Aug-02 05:11N 41°22' E 002°11'0 0.0
2017-Aug-02 04:59N 41°22' E 002°10'0 0.0
2017-Aug-02 04:29N 41°22' E 002°11'0 0.0
2017-Aug-02 03:11N 41°22' E 002°11'0 0.0
2017-Aug-02 02:47N 41°22' E 002°10'0 0.0
2017-Aug-02 02:17N 41°22' E 002°10'0 0.0
2017-Aug-02 01:53N 41°22' E 002°11'  
2017-Jul-29 17:57N 41°19' E 002°11'0 0.0
2017-Jul-29 17:30N 41°19' E 002°11'0 0.0
2017-Jul-29 16:54N 41°19' E 002°11'0 0.0
2017-Jul-29 16:30N 41°19' E 002°11'0 0.0
2017-Jul-29 16:00N 41°19' E 002°11'0 0.0
2017-Jul-29 15:30N 41°19' E 002°11'0 0.0
2017-Jul-29 15:00N 41°19' E 002°11'0 0.0
2017-Jul-29 13:48N 41°19' E 002°11'0 0.0
2017-Jul-29 11:54N 41°19' E 002°11'0 0.0
2017-Jul-29 09:48N 41°19' E 002°11'0 0.0
2017-Jul-29 09:18N 41°19' E 002°11'0 0.0
2017-Jul-29 08:42N 41°19' E 002°11'0 0.0
2017-Jul-29 06:30N 41°19' E 002°11'0 0.0
2017-Jul-29 05:48N 41°19' E 002°11'0 0.0
2017-Jul-29 05:21N 41°19' E 002°11'0 0.0
2017-Jul-29 05:00N 41°19' E 002°11'0 0.0
2017-Jul-28 21:42N 41°19' E 002°11'0 0.0
2017-Jul-28 21:24N 41°19' E 002°11'0 0.0
2017-Jul-28 20:00N 41°19' E 002°11'49 2.0
2017-Jul-27 20:00N 40°33' E 001°50'612.1
2017-Jul-27 19:28N 40°27' E 001°47'612.5
2017-Jul-27 19:00N 40°21' E 001°44'612.6
2017-Jul-27 18:30N 40°16' E 001°41'612.6
2017-Jul-27 18:00N 40°10' E 001°38'612.6
2017-Jul-27 17:30N 40°04' E 001°35'612.7
2017-Jul-27 17:00N 39°58' E 001°32'612.7
2017-Jul-27 16:30N 39°52' E 001°29'7912.6
2017-Jul-27 10:11N 38°38' E 000°51'212.6
2017-Jul-27 10:00N 38°36' E 000°50'612.5
2017-Jul-27 09:30N 38°30' E 000°47'  

Dump ship's entire track history